K40B

Clayton Lake Airport

Clayton Lake, Maine, USA
METAR K40B 160616Z AUTO 00000KT M09/M09 A3021 RMK AO1 SLP255 T10861089 11027 21089 50001
Observed Flight Rules
Dec-16 @ 06:16 UTC (30 minutes ago)
Temperatures Readings
Current -9°C / 16°F
Dewpoint -9°C / 16°F
Humidity 100%
Altimeter 30.21" Hg
Pressure 1025.5 hPa
Elevation 314
METAR K40B 160616Z AUTO 00000KT M09/M09 A3021 RMK AO1 SLP255 T10861089 11027 21089 50001
Observed Flight Rules
Dec-16 @ 06:16 UTC
(30 minutes ago)
Temperature Dewpoint
-9°C / 16°F -9°C / 16°F
Humidity Altimeter Pressure
100% 30.21" Hg 1025.5 hPa